createdAt,value
2022-09-24T00:01:44.450Z,3.20
2022-09-24T00:03:51.984Z,3.45
2022-09-24T00:05:53.610Z,2.83
2022-09-24T00:07:55.235Z,3.10
2022-09-24T00:09:56.840Z,4.75
2022-09-24T00:11:58.833Z,3.45
2022-09-24T00:14:00.773Z,3.25
2022-09-24T00:16:05.135Z,3.38
2022-09-24T00:18:08.084Z,3.55
2022-09-24T00:20:09.816Z,3.40
2022-09-24T00:22:11.421Z,3.13
2022-09-24T00:24:33.830Z,3.58
2022-09-24T00:26:51.445Z,3.50
2022-09-24T00:28:53.082Z,2.90
2022-09-24T00:30:58.287Z,3.28
2022-09-24T00:32:59.962Z,2.78
2022-09-24T00:35:01.600Z,3.08
2022-09-24T00:37:03.379Z,3.22
2022-09-24T00:39:05.820Z,3.08
2022-09-24T00:41:07.562Z,3.20
2022-09-24T00:43:36.194Z,3.05
2022-09-24T00:45:37.810Z,3.83
2022-09-24T00:47:41.333Z,2.72
2022-09-24T00:49:44.342Z,2.90
2022-09-24T00:51:49.027Z,3.42
2022-09-24T00:53:55.280Z,3.28
2022-09-24T00:55:57.149Z,3.70
2022-09-24T00:58:03.352Z,2.90
2022-09-24T01:00:07.255Z,3.25
2022-09-24T01:02:08.996Z,2.80
2022-09-24T01:04:11.446Z,2.90
2022-09-24T01:06:13.825Z,3.20
2022-09-24T01:08:17.264Z,2.97
2022-09-24T01:10:48.180Z,3.13
2022-09-24T01:13:02.252Z,2.90
2022-09-24T01:15:10.966Z,2.90
2022-09-24T01:17:27.547Z,7.10
2022-09-24T01:19:54.644Z,2.90
2022-09-24T01:22:02.372Z,2.90
2022-09-24T01:24:45.561Z,3.13
2022-09-24T01:27:15.357Z,3.17
2022-09-24T01:29:32.395Z,3.85
2022-09-24T01:31:49.089Z,3.45
2022-09-24T01:33:53.361Z,3.63
2022-09-24T01:35:59.439Z,4.75
2022-09-24T01:38:06.815Z,6.70
2022-09-24T01:40:10.666Z,3.92
2022-09-24T01:42:13.524Z,3.20
2022-09-24T01:44:18.341Z,3.25
2022-09-24T01:46:22.706Z,3.53
2022-09-24T01:48:25.277Z,3.17
2022-09-24T01:50:30.744Z,2.80
2022-09-24T01:52:40.883Z,3.78
2022-09-24T01:54:50.274Z,3.30
2022-09-24T01:57:00.575Z,3.20
2022-09-24T01:59:10.153Z,3.55
2022-09-24T02:01:17.320Z,3.20
2022-09-24T02:03:32.915Z,2.95
2022-09-24T02:05:44.035Z,3.63
2022-09-24T02:09:52.400Z,4.55
2022-09-24T02:11:55.541Z,3.20
2022-09-24T02:14:00.684Z,3.38
2022-09-24T02:16:04.575Z,4.75
2022-09-24T02:18:10.779Z,3.33
2022-09-24T02:20:16.480Z,5.38
2022-09-24T02:22:18.294Z,6.55
2022-09-24T02:24:24.396Z,3.00
2022-09-24T02:26:26.016Z,3.63
2022-09-24T02:28:28.265Z,5.30
2022-09-24T02:30:39.342Z,2.70
2022-09-24T02:34:51.643Z,3.20
2022-09-24T02:37:00.113Z,4.13
2022-09-24T02:39:03.000Z,5.25
2022-09-24T02:41:08.009Z,2.63
2022-09-24T02:43:09.604Z,2.67
2022-09-24T02:45:12.332Z,3.38
2022-09-24T02:47:14.058Z,2.60
2022-09-24T02:49:15.731Z,4.00
2022-09-24T02:51:17.317Z,3.10
2022-09-24T02:53:19.017Z,2.80
2022-09-24T02:55:21.442Z,3.78
2022-09-24T02:57:23.031Z,3.20
2022-09-24T02:59:24.669Z,3.95
2022-09-24T03:01:26.303Z,2.80
2022-09-24T03:03:28.446Z,3.85
2022-09-24T03:05:30.084Z,3.60
2022-09-24T03:07:31.824Z,3.15
2022-09-24T03:09:33.442Z,3.25
2022-09-24T03:11:35.656Z,3.20
2022-09-24T03:13:38.531Z,4.40
2022-09-24T03:15:40.245Z,2.88
2022-09-24T03:17:41.931Z,2.80
2022-09-24T03:19:43.538Z,2.90
2022-09-24T03:21:45.136Z,3.47
2022-09-24T03:23:46.897Z,3.10
2022-09-24T03:25:48.519Z,2.97
2022-09-24T03:27:50.128Z,2.67
2022-09-24T03:30:10.643Z,2.80
2022-09-24T03:32:12.225Z,2.53
2022-09-24T03:34:13.849Z,3.42
2022-09-24T03:36:17.285Z,3.17
2022-09-24T03:38:18.897Z,2.95
2022-09-24T03:40:20.696Z,2.92
2022-09-24T03:42:22.334Z,3.50
2022-09-24T03:44:23.949Z,2.97
2022-09-24T03:46:28.380Z,5.03
2022-09-24T03:48:30.201Z,2.97
2022-09-24T03:50:32.080Z,3.05
2022-09-24T03:52:33.929Z,3.13
2022-09-24T03:54:35.577Z,3.20
2022-09-24T03:56:37.168Z,3.78
2022-09-24T03:58:39.908Z,3.20
2022-09-24T04:00:42.376Z,3.67
2022-09-24T04:02:45.001Z,3.47
2022-09-24T04:04:46.700Z,6.60
2022-09-24T04:06:48.319Z,4.68
2022-09-24T04:08:49.956Z,2.58
2022-09-24T04:10:51.723Z,2.95
2022-09-24T04:12:53.432Z,5.32
2022-09-24T04:14:55.232Z,5.65
2022-09-24T04:16:58.847Z,6.63
2022-09-24T04:19:00.487Z,12.20
2022-09-24T04:21:02.104Z,5.85
2022-09-24T04:23:04.711Z,3.05
2022-09-24T04:25:10.225Z,4.03
2022-09-24T04:27:14.471Z,6.13
2022-09-24T04:29:16.564Z,8.93
2022-09-24T04:31:18.321Z,8.65
2022-09-24T04:33:20.069Z,9.52
2022-09-24T04:35:23.279Z,6.72
2022-09-24T04:37:25.303Z,7.97
2022-09-24T04:39:27.716Z,5.95
2022-09-24T04:41:29.563Z,6.75
2022-09-24T04:43:32.222Z,5.57
2022-09-24T04:45:34.237Z,15.15
2022-09-24T04:47:36.986Z,6.72
2022-09-24T04:49:38.629Z,9.85
2022-09-24T04:51:40.460Z,8.45
2022-09-24T04:53:42.078Z,8.48
2022-09-24T04:55:44.482Z,8.77
2022-09-24T04:57:46.357Z,3.70
2022-09-24T04:59:47.976Z,5.60
2022-09-24T05:01:49.738Z,4.15
2022-09-24T05:03:51.497Z,4.53
2022-09-24T05:05:53.088Z,3.40
2022-09-24T05:07:56.866Z,5.45
2022-09-24T05:09:58.540Z,4.28
2022-09-24T05:12:00.239Z,11.82
2022-09-24T05:14:01.910Z,5.22
2022-09-24T05:16:03.689Z,5.50
2022-09-24T05:18:06.192Z,5.10
2022-09-24T05:20:11.167Z,5.85
2022-09-24T05:22:12.853Z,7.53
2022-09-24T05:24:14.769Z,7.03
2022-09-24T05:26:34.979Z,8.93
2022-09-24T05:28:38.116Z,5.13
2022-09-24T05:30:39.725Z,5.10
2022-09-24T05:32:42.036Z,8.15
2022-09-24T05:34:44.561Z,5.40
2022-09-24T05:36:46.269Z,6.55
2022-09-24T05:38:47.865Z,8.82
2022-09-24T05:40:50.685Z,9.82
2022-09-24T05:42:59.412Z,5.50
2022-09-24T05:45:00.992Z,8.32
2022-09-24T05:47:02.695Z,7.20
2022-09-24T05:49:04.580Z,10.00
2022-09-24T05:51:06.889Z,14.75
2022-09-24T05:53:09.471Z,9.15
2022-09-24T05:55:11.154Z,6.60
2022-09-24T05:57:15.531Z,4.60
2022-09-24T05:59:17.162Z,10.60
2022-09-24T06:01:18.829Z,4.13
2022-09-24T06:03:21.023Z,8.07
2022-09-24T06:05:23.353Z,7.07
2022-09-24T06:07:25.037Z,10.43
2022-09-24T06:09:26.643Z,7.60
2022-09-24T06:11:29.502Z,11.63
2022-09-24T06:13:33.543Z,7.25
2022-09-24T06:15:36.036Z,7.15
2022-09-24T06:17:37.642Z,5.78
2022-09-24T06:19:39.295Z,7.13
2022-09-24T06:21:40.942Z,14.98
2022-09-24T06:23:42.743Z,6.32
2022-09-24T06:25:49.932Z,6.28
2022-09-24T06:28:01.173Z,6.72
2022-09-24T06:30:02.963Z,6.35
2022-09-24T06:32:04.662Z,6.68
2022-09-24T06:34:06.337Z,8.98
2022-09-24T06:36:08.550Z,8.43
2022-09-24T06:38:15.640Z,9.60
2022-09-24T06:40:17.584Z,7.80
2022-09-24T06:42:20.724Z,10.40
2022-09-24T06:44:22.400Z,7.45
2022-09-24T06:46:25.723Z,6.55
2022-09-24T06:48:28.656Z,9.55
2022-09-24T06:50:32.402Z,12.00
2022-09-24T06:52:34.193Z,13.80
2022-09-24T06:54:35.812Z,14.75
2022-09-24T06:56:37.396Z,8.63
2022-09-24T06:58:38.994Z,10.13
2022-09-24T07:00:41.495Z,7.97
2022-09-24T07:02:43.451Z,9.07
2022-09-24T07:04:45.052Z,8.90
2022-09-24T07:07:05.164Z,3.88
2022-09-24T07:09:06.819Z,10.60
2022-09-24T07:11:08.932Z,7.25
2022-09-24T07:13:14.183Z,8.40
2022-09-24T07:15:15.853Z,6.55
2022-09-24T07:17:17.612Z,7.47
2022-09-24T07:19:19.201Z,8.70
2022-09-24T07:21:20.785Z,8.70
2022-09-24T07:23:23.470Z,5.78
2022-09-24T07:25:25.121Z,11.48
2022-09-24T07:27:29.468Z,5.88
2022-09-24T07:29:31.560Z,12.90
2022-09-24T07:31:33.593Z,18.15
2022-09-24T07:33:35.388Z,4.85
2022-09-24T07:35:39.143Z,10.93
2022-09-24T07:37:40.756Z,5.18
2022-09-24T07:39:43.266Z,8.35
2022-09-24T07:41:44.979Z,3.72
2022-09-24T07:43:46.908Z,6.10
2022-09-24T07:45:49.038Z,8.95
2022-09-24T07:48:01.204Z,10.63
2022-09-24T07:50:03.029Z,7.85
2022-09-24T07:52:04.742Z,5.18
2022-09-24T07:54:06.545Z,4.18
2022-09-24T07:56:08.156Z,4.78
2022-09-24T07:58:14.020Z,7.35
2022-09-24T08:00:17.686Z,6.65
2022-09-24T08:02:20.316Z,14.32
2022-09-24T08:04:22.398Z,6.50
2022-09-24T08:06:24.069Z,7.47
2022-09-24T08:08:25.963Z,6.75
2022-09-24T08:10:28.817Z,9.50
2022-09-24T08:12:30.434Z,8.23
2022-09-24T08:14:32.484Z,17.27
2022-09-24T08:16:34.476Z,9.05
2022-09-24T08:18:36.075Z,6.55
2022-09-24T08:20:38.781Z,12.55
2022-09-24T08:22:40.733Z,5.15
2022-09-24T08:24:43.261Z,6.65
2022-09-24T08:26:44.867Z,7.43
2022-09-24T08:28:49.316Z,5.68
2022-09-24T08:30:51.069Z,4.22
2022-09-24T08:32:52.768Z,6.30
2022-09-24T08:34:54.361Z,5.32
2022-09-24T08:36:56.799Z,8.70
2022-09-24T08:38:59.027Z,4.68
2022-09-24T08:41:12.913Z,9.45
2022-09-24T08:43:39.450Z,5.03
2022-09-24T08:46:06.686Z,4.00
2022-09-24T08:48:20.175Z,8.05
2022-09-24T08:50:27.310Z,5.32
2022-09-24T08:52:42.617Z,6.50
2022-09-24T08:54:45.511Z,8.02
2022-09-24T08:56:47.290Z,7.30
2022-09-24T08:59:21.413Z,3.65
2022-09-24T09:01:29.367Z,5.05
2022-09-24T09:03:39.001Z,4.75
2022-09-24T09:06:05.010Z,6.95
2022-09-24T09:08:42.448Z,5.57
2022-09-24T09:10:43.328Z,6.35
2022-09-24T09:12:57.919Z,3.67
2022-09-24T09:15:12.215Z,7.10
2022-09-24T09:17:36.358Z,3.85
2022-09-24T09:19:41.097Z,6.32
2022-09-24T09:21:46.721Z,3.67
2022-09-24T09:23:50.837Z,3.00
2022-09-24T09:25:55.955Z,3.08
2022-09-24T09:28:06.954Z,2.72
2022-09-24T09:30:16.349Z,6.53
2022-09-24T09:32:33.357Z,3.72
2022-09-24T09:34:49.928Z,2.72
2022-09-24T09:37:00.022Z,4.45
2022-09-24T09:39:28.349Z,2.57
2022-09-24T09:41:40.342Z,2.30
2022-09-24T09:43:41.998Z,2.00
2022-09-24T09:46:07.514Z,3.33
2022-09-24T09:48:16.417Z,2.60
2022-09-24T09:50:28.468Z,3.38
2022-09-24T09:52:34.221Z,5.40
2022-09-24T09:54:39.703Z,2.90
2022-09-24T09:56:47.723Z,10.85
2022-09-24T09:58:53.464Z,11.48
2022-09-24T10:01:08.826Z,13.60
2022-09-24T10:03:26.181Z,8.18
2022-09-24T10:05:28.813Z,13.40
2022-09-24T10:07:31.597Z,7.38
2022-09-24T10:09:34.361Z,9.13
2022-09-24T10:11:36.033Z,23.92
2022-09-24T10:13:37.657Z,20.77
2022-09-24T10:15:51.261Z,33.17
2022-09-24T10:17:55.208Z,36.15
2022-09-24T10:19:57.356Z,48.17
2022-09-24T10:22:08.405Z,46.70
2022-09-24T10:26:42.433Z,52.35
2022-09-24T10:29:08.615Z,43.10
2022-09-24T10:31:31.779Z,39.10
2022-09-24T10:33:42.301Z,36.50
2022-09-24T10:35:43.908Z,36.55
2022-09-24T10:37:56.907Z,34.60
2022-09-24T10:40:13.754Z,36.20
2022-09-24T10:42:27.373Z,36.30
2022-09-24T10:44:38.425Z,32.75
2022-09-24T10:48:54.625Z,30.23
2022-09-24T10:51:15.644Z,39.92
2022-09-24T10:53:39.475Z,35.53
2022-09-24T10:56:03.751Z,39.00
2022-09-24T10:58:53.320Z,29.40
2022-09-24T11:01:32.295Z,32.22
2022-09-24T11:03:43.022Z,31.17
2022-09-24T11:06:00.857Z,25.40
2022-09-24T11:08:17.385Z,27.33
2022-09-24T11:10:36.978Z,33.10
2022-09-24T11:13:16.292Z,28.80
2022-09-24T11:15:50.877Z,26.30
2022-09-24T11:18:30.114Z,27.00
2022-09-24T11:20:37.411Z,22.27
2022-09-24T11:23:23.909Z,25.42
2022-09-24T11:25:55.077Z,21.05
2022-09-24T11:28:18.054Z,23.55
2022-09-24T11:30:22.341Z,23.13
2022-09-24T11:32:39.017Z,23.83
2022-09-24T11:35:15.868Z,21.30
2022-09-24T11:37:17.411Z,21.10
2022-09-24T11:39:22.024Z,17.42
2022-09-24T11:41:35.107Z,25.95
2022-09-24T11:43:43.043Z,18.10
2022-09-24T11:46:21.332Z,15.85
2022-09-24T11:48:44.147Z,17.90
2022-09-24T11:50:48.001Z,19.20
2022-09-24T11:53:11.277Z,17.20
2022-09-24T11:55:23.596Z,16.58
2022-09-24T11:57:38.088Z,14.98
2022-09-24T12:00:21.124Z,15.98
2022-09-24T12:02:45.629Z,14.45
2022-09-24T12:04:55.618Z,11.30
2022-09-24T12:07:13.168Z,10.27
2022-09-24T12:09:45.754Z,12.55
2022-09-24T12:11:52.764Z,9.52
2022-09-24T12:14:17.421Z,11.82
2022-09-24T12:16:24.536Z,15.77
2022-09-24T12:18:36.177Z,9.38
2022-09-24T12:20:51.728Z,10.48
2022-09-24T12:23:01.674Z,10.07
2022-09-24T12:25:04.011Z,9.50
2022-09-24T12:27:16.191Z,8.98
2022-09-24T12:29:54.391Z,10.48
2022-09-24T12:32:54.719Z,10.45
2022-09-24T12:35:14.142Z,10.55
2022-09-24T12:37:20.141Z,7.72
2022-09-24T12:39:25.562Z,8.35
2022-09-24T12:41:33.774Z,7.43
2022-09-24T12:43:58.571Z,8.90
2022-09-24T12:46:06.142Z,8.80
2022-09-24T12:48:15.463Z,6.28
2022-09-24T12:50:24.665Z,7.13
2022-09-24T12:52:41.694Z,7.43
2022-09-24T12:54:44.230Z,6.13
2022-09-24T12:56:46.020Z,7.85
2022-09-24T12:58:49.379Z,5.88
2022-09-24T13:00:53.401Z,5.57
2022-09-24T13:02:56.172Z,5.82
2022-09-24T13:05:04.533Z,6.65
2022-09-24T13:07:34.289Z,6.68
2022-09-24T13:09:40.536Z,6.80
2022-09-24T13:11:42.424Z,6.10
2022-09-24T13:13:45.318Z,5.82
2022-09-24T13:16:02.058Z,6.22
2022-09-24T13:18:25.488Z,7.35
2022-09-24T13:20:27.284Z,7.95
2022-09-24T13:22:31.570Z,10.25
2022-09-24T13:24:48.177Z,5.38
2022-09-24T13:26:49.942Z,5.47
2022-09-24T13:29:01.416Z,10.20
2022-09-24T13:31:29.522Z,7.85
2022-09-24T13:33:39.550Z,10.57
2022-09-24T13:36:13.412Z,7.20
2022-09-24T13:38:23.886Z,14.77
2022-09-24T13:40:31.950Z,16.27
2022-09-24T13:42:58.431Z,8.48
2022-09-24T13:45:07.550Z,9.20
2022-09-24T13:49:25.808Z,16.88
2022-09-24T13:51:31.296Z,15.82
2022-09-24T13:53:43.948Z,13.02
2022-09-24T13:55:55.642Z,19.55
2022-09-24T13:57:57.923Z,11.38
2022-09-24T14:00:12.637Z,15.50
2022-09-24T14:02:25.951Z,6.72
2022-09-24T14:04:28.187Z,17.27
2022-09-24T14:06:47.073Z,9.88
2022-09-24T14:08:49.110Z,10.82
2022-09-24T14:10:51.243Z,11.38
2022-09-24T14:13:02.831Z,13.23
2022-09-24T14:15:14.453Z,19.25
2022-09-24T14:17:16.105Z,11.57
2022-09-24T14:19:17.784Z,13.65
2022-09-24T14:21:28.647Z,15.45
2022-09-24T14:23:51.552Z,17.30
2022-09-24T14:25:54.363Z,12.50
2022-09-24T14:27:59.563Z,13.10
2022-09-24T14:30:04.923Z,12.23
2022-09-24T14:32:07.723Z,18.05
2022-09-24T14:34:24.231Z,15.88
2022-09-24T14:36:29.070Z,15.60
2022-09-24T14:38:35.683Z,11.48
2022-09-24T14:41:05.063Z,10.75
2022-09-24T14:43:32.408Z,13.05
2022-09-24T14:45:40.390Z,8.38
2022-09-24T14:47:42.013Z,10.10
2022-09-24T14:49:45.180Z,11.07
2022-09-24T14:51:59.692Z,12.73
2022-09-24T14:54:28.388Z,17.98
2022-09-24T14:56:33.007Z,10.20
2022-09-24T14:58:36.415Z,14.25
2022-09-24T15:00:49.667Z,7.93
2022-09-24T15:03:00.739Z,8.50
2022-09-24T15:05:06.543Z,7.22
2022-09-24T15:07:18.623Z,10.95
2022-09-24T15:09:25.876Z,6.10
2022-09-24T15:11:30.595Z,19.05
2022-09-24T15:13:37.685Z,16.98
2022-09-24T15:15:39.919Z,15.77
2022-09-24T15:17:41.560Z,23.45
2022-09-24T15:19:44.003Z,23.85
2022-09-24T15:22:05.917Z,18.25
2022-09-24T15:24:07.560Z,14.10
2022-09-24T15:26:09.507Z,6.20
2022-09-24T15:28:14.377Z,15.98
2022-09-24T15:30:21.216Z,8.55
2022-09-24T15:32:22.856Z,10.95
2022-09-24T15:34:25.528Z,22.25
2022-09-24T15:36:27.172Z,15.52
2022-09-24T15:38:28.822Z,9.77
2022-09-24T15:40:33.722Z,13.15
2022-09-24T15:42:35.399Z,14.27
2022-09-24T15:44:37.131Z,14.02
2022-09-24T15:46:38.765Z,11.93
2022-09-24T15:48:40.430Z,7.32
2022-09-24T15:50:45.267Z,14.70
2022-09-24T15:52:50.260Z,10.95
2022-09-24T15:55:00.611Z,7.03
2022-09-24T15:57:02.763Z,13.25
2022-09-24T15:59:13.224Z,10.82
2022-09-24T16:01:18.701Z,11.43
2022-09-24T16:03:25.180Z,15.10
2022-09-24T16:05:26.892Z,13.13
2022-09-24T16:07:28.514Z,12.65
2022-09-24T16:09:30.146Z,13.40
2022-09-24T16:11:31.961Z,8.10
2022-09-24T16:13:35.075Z,7.40
2022-09-24T16:15:37.278Z,9.75
2022-09-24T16:17:39.691Z,8.23
2022-09-24T16:19:41.312Z,8.25
2022-09-24T16:21:42.999Z,13.00
2022-09-24T16:23:44.695Z,6.38
2022-09-24T16:25:57.252Z,8.23
2022-09-24T16:27:59.078Z,7.50
2022-09-24T16:30:02.001Z,10.18
2022-09-24T16:32:03.704Z,5.57
2022-09-24T16:34:05.354Z,10.55
2022-09-24T16:36:08.253Z,10.63
2022-09-24T16:38:09.899Z,7.78
2022-09-24T16:40:12.148Z,10.43
2022-09-24T16:42:13.784Z,9.23
2022-09-24T16:44:15.537Z,10.80
2022-09-24T16:46:20.699Z,14.15
2022-09-24T16:48:22.653Z,26.85
2022-09-24T16:50:24.350Z,12.00
2022-09-24T16:52:25.994Z,13.07
2022-09-24T16:54:29.558Z,7.72
2022-09-24T16:56:31.629Z,11.70
2022-09-24T16:58:33.279Z,14.10
2022-09-24T17:00:34.888Z,12.95
2022-09-24T17:02:36.645Z,12.52
2022-09-24T17:04:39.726Z,12.27
2022-09-24T17:06:44.424Z,11.13
2022-09-24T17:09:04.648Z,9.50
2022-09-24T17:11:06.260Z,9.73
2022-09-24T17:13:07.828Z,7.93
2022-09-24T17:15:10.065Z,10.40
2022-09-24T17:17:11.693Z,9.55
2022-09-24T17:19:13.483Z,6.90
2022-09-24T17:21:15.239Z,14.50
2022-09-24T17:23:16.875Z,15.20
2022-09-24T17:25:18.548Z,9.93
2022-09-24T17:27:20.171Z,7.30
2022-09-24T17:29:26.490Z,13.98
2022-09-24T17:31:30.707Z,7.68
2022-09-24T17:33:43.439Z,7.60
2022-09-24T17:35:57.320Z,10.50
2022-09-24T17:37:59.071Z,21.33
2022-09-24T17:40:00.733Z,19.48
2022-09-24T17:42:02.473Z,25.35
2022-09-24T17:44:04.089Z,13.98
2022-09-24T17:46:14.678Z,17.80
2022-09-24T17:48:16.443Z,5.90
2022-09-24T17:50:18.291Z,8.32
2022-09-24T17:52:20.626Z,10.63
2022-09-24T17:54:24.083Z,9.43
2022-09-24T17:56:27.727Z,14.63
2022-09-24T17:58:29.371Z,8.40
2022-09-24T18:00:31.077Z,4.35
2022-09-24T18:02:32.794Z,6.85
2022-09-24T18:04:38.135Z,7.05
2022-09-24T18:06:41.490Z,8.15
2022-09-24T18:08:45.118Z,6.22
2022-09-24T18:10:46.732Z,4.32
2022-09-24T18:12:48.368Z,8.45
2022-09-24T18:14:49.943Z,14.05
2022-09-24T18:16:51.965Z,7.57
2022-09-24T18:18:53.917Z,6.03
2022-09-24T18:20:57.946Z,11.77
2022-09-24T18:22:59.558Z,8.18
2022-09-24T18:25:05.992Z,5.07
2022-09-24T18:27:07.612Z,6.53
2022-09-24T18:29:15.470Z,5.10
2022-09-24T18:31:18.439Z,6.25
2022-09-24T18:33:20.243Z,5.78
2022-09-24T18:35:21.907Z,10.27
2022-09-24T18:37:23.801Z,7.28
2022-09-24T18:39:25.873Z,9.95
2022-09-24T18:41:29.571Z,4.10
2022-09-24T18:43:31.545Z,11.05
2022-09-24T18:45:34.887Z,4.65
2022-09-24T18:47:38.205Z,6.05
2022-09-24T18:49:43.427Z,7.38
2022-09-24T18:51:46.508Z,6.07
2022-09-24T18:54:03.014Z,6.72
2022-09-24T18:56:08.748Z,9.73
2022-09-24T18:58:11.071Z,6.57
2022-09-24T19:00:32.977Z,3.22
2022-09-24T19:02:34.716Z,7.80
2022-09-24T19:04:36.372Z,6.20
2022-09-24T19:06:40.516Z,5.35
2022-09-24T19:08:42.127Z,3.00
2022-09-24T19:10:43.891Z,5.13
2022-09-24T19:12:45.556Z,4.85
2022-09-24T19:14:47.917Z,4.55
2022-09-24T19:16:49.501Z,6.20
2022-09-24T19:18:52.884Z,9.60
2022-09-24T19:20:57.033Z,6.90
2022-09-24T19:23:00.177Z,4.35
2022-09-24T19:25:01.919Z,4.85
2022-09-24T19:27:03.623Z,7.57
2022-09-24T19:29:05.839Z,3.53
2022-09-24T19:31:17.769Z,8.75
2022-09-24T19:33:20.102Z,6.90
2022-09-24T19:35:22.278Z,6.35
2022-09-24T19:37:24.771Z,6.13
2022-09-24T19:39:26.390Z,9.05
2022-09-24T19:41:29.069Z,4.43
2022-09-24T19:43:33.523Z,5.47
2022-09-24T19:45:36.327Z,8.40
2022-09-24T19:47:38.043Z,7.65
2022-09-24T19:49:39.634Z,7.57
2022-09-24T19:51:41.740Z,3.42
2022-09-24T19:53:44.283Z,2.80
2022-09-24T19:55:46.200Z,4.10
2022-09-24T19:57:47.792Z,7.55
2022-09-24T19:59:49.451Z,7.28
2022-09-24T20:01:52.666Z,3.92
2022-09-24T20:03:54.567Z,4.50
2022-09-24T20:05:56.188Z,4.35
2022-09-24T20:07:57.776Z,6.35
2022-09-24T20:09:59.448Z,5.18
2022-09-24T20:12:01.884Z,7.18
2022-09-24T20:14:06.518Z,3.97
2022-09-24T20:16:08.761Z,3.33
2022-09-24T20:18:12.831Z,4.38
2022-09-24T20:20:14.933Z,3.85
2022-09-24T20:22:18.121Z,3.65
2022-09-24T20:24:21.488Z,5.90
2022-09-24T20:26:43.541Z,3.05
2022-09-24T20:28:46.801Z,3.80
2022-09-24T20:30:48.574Z,4.25
2022-09-24T20:32:50.925Z,5.40
2022-09-24T20:34:53.221Z,2.80
2022-09-24T20:36:57.692Z,5.32
2022-09-24T20:38:59.797Z,2.75
2022-09-24T20:41:05.967Z,3.28
2022-09-24T20:43:08.767Z,7.53
2022-09-24T20:45:11.454Z,4.97
2022-09-24T20:47:13.887Z,3.33
2022-09-24T20:49:24.168Z,4.60
2022-09-24T20:51:28.329Z,4.72
2022-09-24T20:53:30.048Z,3.25
2022-09-24T20:55:31.701Z,4.65
2022-09-24T20:57:33.348Z,5.40
2022-09-24T20:59:35.488Z,4.35
2022-09-24T21:01:39.248Z,3.13
2022-09-24T21:03:45.871Z,2.90
2022-09-24T21:05:47.828Z,3.75
2022-09-24T21:07:49.412Z,5.15
2022-09-24T21:09:51.221Z,3.65
2022-09-24T21:11:54.267Z,2.95
2022-09-24T21:14:01.030Z,3.08
2022-09-24T21:16:04.269Z,4.05
2022-09-24T21:18:22.335Z,2.72
2022-09-24T21:20:24.637Z,3.30
2022-09-24T21:22:26.668Z,2.63
2022-09-24T21:24:31.439Z,3.45
2022-09-24T21:26:36.169Z,3.20
2022-09-24T21:28:38.552Z,3.90
2022-09-24T21:30:40.309Z,4.72
2022-09-24T21:32:42.157Z,2.70
2022-09-24T21:34:44.530Z,3.42
2022-09-24T21:36:46.466Z,2.85
2022-09-24T21:39:08.936Z,3.53
2022-09-24T21:41:10.593Z,2.90
2022-09-24T21:43:12.181Z,3.55
2022-09-24T21:45:13.956Z,3.05
2022-09-24T21:47:15.633Z,2.65
2022-09-24T21:49:18.464Z,2.90
2022-09-24T21:51:23.725Z,2.35
2022-09-24T21:53:25.353Z,2.80
2022-09-24T21:55:26.943Z,2.70
2022-09-24T21:57:28.566Z,2.92
2022-09-24T21:59:49.024Z,4.13
2022-09-24T22:01:50.661Z,2.50
2022-09-24T22:03:55.184Z,4.00
2022-09-24T22:05:59.141Z,2.50
2022-09-24T22:08:00.908Z,2.80
2022-09-24T22:10:02.583Z,2.63
2022-09-24T22:12:04.661Z,3.00
2022-09-24T22:14:06.350Z,2.78
2022-09-24T22:16:10.645Z,3.22
2022-09-24T22:18:12.277Z,2.50
2022-09-24T22:20:14.008Z,3.17
2022-09-24T22:22:15.872Z,2.35
2022-09-24T22:24:17.828Z,4.68
2022-09-24T22:26:19.569Z,2.25
2022-09-24T22:28:24.907Z,2.58
2022-09-24T22:30:26.560Z,2.58
2022-09-24T22:32:28.195Z,2.30
2022-09-24T22:34:48.492Z,2.65
2022-09-24T22:36:51.700Z,4.00
2022-09-24T22:38:54.806Z,2.60
2022-09-24T22:40:59.563Z,2.45
2022-09-24T22:43:01.227Z,2.60
2022-09-24T22:45:03.258Z,2.50
2022-09-24T22:47:04.992Z,2.63
2022-09-24T22:49:07.139Z,2.67
2022-09-24T22:51:09.728Z,2.10
2022-09-24T22:53:11.545Z,2.53
2022-09-24T22:55:13.261Z,4.03
2022-09-24T22:57:15.678Z,2.22
2022-09-24T22:59:17.283Z,2.40
2022-09-24T23:01:22.579Z,3.33
2022-09-24T23:03:24.367Z,2.42
2022-09-24T23:05:26.014Z,2.63
2022-09-24T23:07:27.668Z,2.28
2022-09-24T23:09:29.243Z,2.00
2022-09-24T23:11:32.729Z,2.13
2022-09-24T23:13:34.379Z,2.42
2022-09-24T23:15:36.026Z,2.25
2022-09-24T23:17:37.984Z,2.65
2022-09-24T23:19:49.329Z,2.33
2022-09-24T23:21:50.996Z,2.17
2022-09-24T23:23:58.291Z,2.38
2022-09-24T23:26:04.773Z,4.40
2022-09-24T23:28:06.352Z,2.40
2022-09-24T23:30:08.543Z,2.55
2022-09-24T23:32:11.146Z,2.20
2022-09-24T23:34:13.596Z,2.53
2022-09-24T23:36:15.716Z,2.63
2022-09-24T23:38:17.359Z,2.00
2022-09-24T23:40:19.258Z,2.53
2022-09-24T23:42:21.150Z,1.90
2022-09-24T23:44:22.939Z,2.40
2022-09-24T23:46:25.161Z,2.30
2022-09-24T23:48:27.037Z,2.40
2022-09-24T23:50:28.645Z,2.38
2022-09-24T23:52:30.235Z,2.10
2022-09-24T23:54:32.000Z,2.72
2022-09-24T23:56:34.007Z,2.22
2022-09-24T23:58:36.157Z,3.13
